createdAt,value
2022-10-02T00:01:05.634Z,99561.56
2022-10-02T00:03:38.905Z,99501.38
2022-10-02T00:06:13.675Z,99459.37
2022-10-02T00:08:41.620Z,99448.72
2022-10-02T00:11:16.407Z,99468.81
2022-10-02T00:13:50.055Z,99497.25
2022-10-02T00:16:37.201Z,99507.53
2022-10-02T00:19:04.418Z,99489.34
2022-10-02T00:21:49.006Z,99472.41
2022-10-02T00:24:22.059Z,99447.00
2022-10-02T00:26:57.095Z,99446.66
2022-10-02T00:29:32.071Z,99448.50
2022-10-02T00:32:24.620Z,99442.56
2022-10-02T00:35:25.588Z,99433.72
2022-10-02T00:38:24.501Z,99415.97
2022-10-02T00:40:57.350Z,99394.25
2022-10-02T00:43:46.717Z,99409.88
2022-10-02T00:46:13.711Z,99408.28
2022-10-02T00:49:02.683Z,99398.81
2022-10-02T00:51:48.110Z,99386.59
2022-10-02T00:54:40.191Z,99399.28
2022-10-02T00:57:42.779Z,99388.78
2022-10-02T01:00:11.443Z,99383.91
2022-10-02T01:02:44.841Z,99379.56
2022-10-02T01:05:11.711Z,99369.41
2022-10-02T01:07:39.960Z,99353.09
2022-10-02T01:10:06.795Z,99358.59
2022-10-02T01:12:33.287Z,99358.81
2022-10-02T01:15:00.131Z,99345.41
2022-10-02T01:17:34.178Z,99352.41
2022-10-02T01:20:04.561Z,99336.31
2022-10-02T01:22:36.770Z,99341.47
2022-10-02T01:25:05.474Z,99338.31
2022-10-02T01:27:35.514Z,99323.25
2022-10-02T01:30:10.323Z,99323.50
2022-10-02T01:32:40.474Z,99319.16
2022-10-02T01:35:07.809Z,99310.56
2022-10-02T01:37:36.474Z,99299.25
2022-10-02T01:40:05.931Z,99293.28
2022-10-02T01:42:34.124Z,99285.47
2022-10-02T01:45:00.915Z,99289.44
2022-10-02T01:47:36.773Z,99286.66
2022-10-02T01:50:06.811Z,99286.56
2022-10-02T01:52:33.293Z,99276.78
2022-10-02T01:54:59.759Z,99267.78
2022-10-02T01:57:40.369Z,99270.34
2022-10-02T02:00:09.865Z,99272.09
2022-10-02T02:02:56.792Z,99258.53
2022-10-02T02:05:38.959Z,99262.50
2022-10-02T02:08:14.009Z,99252.25
2022-10-02T02:10:45.169Z,99246.31
2022-10-02T02:13:15.219Z,99238.50
2022-10-02T02:16:08.149Z,99237.31
2022-10-02T02:18:48.123Z,99229.75
2022-10-02T02:21:28.469Z,99214.16
2022-10-02T02:23:56.582Z,99207.41
2022-10-02T02:26:24.710Z,99195.06
2022-10-02T02:28:53.662Z,99185.63
2022-10-02T02:31:27.330Z,99183.41
2022-10-02T02:33:59.534Z,99172.69
2022-10-02T02:36:29.419Z,99175.59
2022-10-02T02:38:59.968Z,99167.78
2022-10-02T02:41:28.215Z,99158.12
2022-10-02T02:44:01.865Z,99147.87
2022-10-02T02:46:33.486Z,99141.16
2022-10-02T02:49:05.031Z,99135.19
2022-10-02T02:51:35.535Z,99137.06
2022-10-02T02:54:05.385Z,99129.25
2022-10-02T02:56:33.250Z,99129.03
2022-10-02T02:59:02.225Z,99117.50
2022-10-02T03:01:29.339Z,99114.81
2022-10-02T03:03:56.212Z,99113.53
2022-10-02T03:06:31.559Z,99111.69
2022-10-02T03:08:59.850Z,99114.94
2022-10-02T03:11:38.308Z,99106.19
2022-10-02T03:14:29.936Z,99096.41
2022-10-02T03:17:07.177Z,99089.31
2022-10-02T03:19:37.214Z,99083.22
2022-10-02T03:22:09.851Z,99084.13
2022-10-02T03:24:56.978Z,99083.41
2022-10-02T03:27:29.284Z,99080.06
2022-10-02T03:30:07.214Z,99080.19
2022-10-02T03:32:34.390Z,99069.53
2022-10-02T03:35:01.653Z,99058.34
2022-10-02T03:37:28.928Z,99052.97
2022-10-02T03:40:00.289Z,99051.47
2022-10-02T03:42:29.168Z,99037.75
2022-10-02T03:44:55.657Z,99052.03
2022-10-02T03:47:22.138Z,99058.22
2022-10-02T03:49:49.127Z,99062.31
2022-10-02T03:52:17.095Z,99060.19
2022-10-02T03:54:43.638Z,99071.22
2022-10-02T03:57:14.035Z,99078.78
2022-10-02T03:59:50.863Z,99080.19
2022-10-02T04:02:40.071Z,99061.91
2022-10-02T04:05:10.163Z,99060.12
2022-10-02T04:07:41.989Z,99064.09
2022-10-02T04:10:21.123Z,99058.19
2022-10-02T04:12:50.020Z,99042.56
2022-10-02T04:15:21.412Z,99041.97
2022-10-02T04:17:58.218Z,99040.84
2022-10-02T04:20:28.410Z,99050.19
2022-10-02T04:22:55.995Z,99030.81
2022-10-02T04:25:25.865Z,99024.91
2022-10-02T04:28:03.647Z,99027.00
2022-10-02T04:30:30.240Z,99015.22
2022-10-02T04:32:58.236Z,98997.84
2022-10-02T04:35:24.719Z,98997.59
2022-10-02T04:37:59.895Z,99002.16
2022-10-02T04:40:35.098Z,99005.09
2022-10-02T04:43:10.889Z,98999.50
2022-10-02T04:45:55.360Z,98998.41
2022-10-02T04:48:40.727Z,98984.78
2022-10-02T04:51:26.408Z,98978.38
2022-10-02T04:53:59.286Z,98954.47
2022-10-02T04:56:49.525Z,98935.16
2022-10-02T04:59:34.029Z,98930.84
2022-10-02T05:02:11.786Z,98924.91
2022-10-02T05:04:56.864Z,98908.84
2022-10-02T05:07:23.843Z,98909.88
2022-10-02T05:10:01.777Z,98909.06
2022-10-02T05:12:34.892Z,98910.94
2022-10-02T05:15:10.222Z,98909.31
2022-10-02T05:17:45.857Z,98902.56
2022-10-02T05:20:24.127Z,98885.69
2022-10-02T05:22:50.910Z,98888.91
2022-10-02T05:25:36.322Z,98881.94
2022-10-02T05:28:06.114Z,98880.56
2022-10-02T05:30:53.323Z,98881.63
2022-10-02T05:33:23.264Z,98882.41
2022-10-02T05:36:10.353Z,98883.00
2022-10-02T05:38:59.910Z,98888.91
2022-10-02T05:41:45.527Z,98908.25
2022-10-02T05:44:17.503Z,98923.03
2022-10-02T05:46:46.595Z,98924.69
2022-10-02T05:49:18.654Z,98904.03
2022-10-02T05:52:04.214Z,98877.22
2022-10-02T05:54:43.419Z,98852.06
2022-10-02T05:57:09.991Z,98853.09
2022-10-02T05:59:39.822Z,98864.87
2022-10-02T06:02:13.727Z,98850.91
2022-10-02T06:04:44.135Z,98862.12
2022-10-02T06:07:14.253Z,98854.56
2022-10-02T06:09:46.378Z,98858.53
2022-10-02T06:12:26.543Z,98851.56
2022-10-02T06:14:58.188Z,98850.75
2022-10-02T06:17:27.502Z,98825.00
2022-10-02T06:19:54.343Z,98826.63
2022-10-02T06:22:34.404Z,98834.66
2022-10-02T06:25:16.293Z,98819.87
2022-10-02T06:27:48.392Z,98823.34
2022-10-02T06:30:16.894Z,98815.31
2022-10-02T06:33:02.215Z,98811.84
2022-10-02T06:35:52.285Z,98818.00
2022-10-02T06:38:48.690Z,98815.31
2022-10-02T06:41:31.781Z,98815.31
2022-10-02T06:44:08.107Z,98798.44
2022-10-02T06:46:53.736Z,98805.41
2022-10-02T06:49:26.348Z,98796.34
2022-10-02T06:51:59.596Z,98790.16
2022-10-02T06:54:29.101Z,98788.06
2022-10-02T06:57:21.699Z,98788.87
2022-10-02T06:59:55.066Z,98792.38
2022-10-02T07:02:40.479Z,98782.59
2022-10-02T07:05:22.058Z,98792.13
2022-10-02T07:07:54.296Z,98784.62
2022-10-02T07:10:29.787Z,98778.22
2022-10-02T07:13:04.869Z,98774.22
2022-10-02T07:15:37.540Z,98765.94
2022-10-02T07:18:23.452Z,98764.66
2022-10-02T07:20:50.545Z,98762.53
2022-10-02T07:23:24.242Z,98752.13
2022-10-02T07:25:50.831Z,98751.66
2022-10-02T07:28:23.893Z,98747.09
2022-10-02T07:30:56.367Z,98755.47
2022-10-02T07:33:38.966Z,98745.28
2022-10-02T07:36:10.843Z,98749.34
2022-10-02T07:38:56.975Z,98740.22
2022-10-02T07:41:32.555Z,98737.06
2022-10-02T07:44:09.009Z,98737.13
2022-10-02T07:46:54.873Z,98744.44
2022-10-02T07:49:29.271Z,98738.56
2022-10-02T07:52:00.768Z,98743.44
2022-10-02T07:54:33.634Z,98740.25
2022-10-02T07:57:07.681Z,98740.25
2022-10-02T07:59:39.834Z,98735.69
2022-10-02T08:02:08.087Z,98734.09
2022-10-02T08:04:37.262Z,98734.09
2022-10-02T08:07:04.788Z,98728.97
2022-10-02T08:09:39.330Z,98722.22
2022-10-02T08:12:12.543Z,98719.56
2022-10-02T08:14:43.235Z,98709.62
2022-10-02T08:17:16.013Z,98705.09
2022-10-02T08:19:45.926Z,98700.78
2022-10-02T08:22:21.784Z,98687.38
2022-10-02T08:24:50.336Z,98680.44
2022-10-02T08:27:24.257Z,98679.38
2022-10-02T08:29:57.121Z,98678.31
2022-10-02T08:32:25.495Z,98667.59
2022-10-02T08:34:52.116Z,98666.03
2022-10-02T08:37:29.392Z,98669.25
2022-10-02T08:39:59.432Z,98666.34
2022-10-02T08:42:45.718Z,98662.88
2022-10-02T08:45:18.633Z,98661.94
2022-10-02T08:48:00.733Z,98665.81
2022-10-02T08:50:53.619Z,98654.44
2022-10-02T08:53:26.355Z,98658.87
2022-10-02T08:56:03.473Z,98650.69
2022-10-02T08:58:47.658Z,98652.41
2022-10-02T09:01:29.995Z,98660.22
2022-10-02T09:03:59.328Z,98651.13
2022-10-02T09:06:41.449Z,98653.28
2022-10-02T09:09:08.055Z,98651.72
2022-10-02T09:11:54.343Z,98646.34
2022-10-02T09:14:39.286Z,98653.03
2022-10-02T09:17:30.681Z,98651.97
2022-10-02T09:20:00.130Z,98647.38
2022-10-02T09:22:48.121Z,98643.84
2022-10-02T09:25:31.517Z,98648.69
2022-10-02T09:28:07.545Z,98645.19
2022-10-02T09:30:37.290Z,98650.81
2022-10-02T09:33:04.064Z,98648.34
2022-10-02T09:35:36.508Z,98644.28
2022-10-02T09:38:16.076Z,98653.13
2022-10-02T09:41:02.150Z,98653.91
2022-10-02T09:43:51.268Z,98657.34
2022-10-02T09:46:20.078Z,98652.75
2022-10-02T09:48:54.783Z,98658.87
2022-10-02T09:51:29.582Z,98652.94
2022-10-02T09:54:15.538Z,98658.56
2022-10-02T09:57:01.162Z,98660.75
2022-10-02T09:59:27.705Z,98659.25
2022-10-02T10:02:00.944Z,98656.38
2022-10-02T10:05:04.609Z,98648.12
2022-10-02T10:07:47.866Z,98662.72
2022-10-02T10:10:38.266Z,98637.56
2022-10-02T10:13:16.557Z,98647.28
2022-10-02T10:15:46.472Z,98643.84
2022-10-02T10:18:28.268Z,98651.13
2022-10-02T10:21:14.905Z,98654.88
2022-10-02T10:24:00.767Z,98648.69
2022-10-02T10:26:45.298Z,98648.91
2022-10-02T10:29:12.136Z,98643.75
2022-10-02T10:31:41.799Z,98650.16
2022-10-02T10:34:27.148Z,98653.09
2022-10-02T10:37:15.715Z,98646.88
2022-10-02T10:40:01.144Z,98654.41
2022-10-02T10:43:03.373Z,98648.22
2022-10-02T10:45:31.343Z,98655.19
2022-10-02T10:48:10.301Z,98648.25
2022-10-02T10:50:39.622Z,98652.31
2022-10-02T10:53:06.465Z,98656.88
2022-10-02T10:55:40.029Z,98662.75
2022-10-02T10:58:38.850Z,98660.03
2022-10-02T11:01:17.388Z,98671.22
2022-10-02T11:04:01.221Z,98699.03
2022-10-02T11:06:27.793Z,98682.75
2022-10-02T11:09:04.786Z,98697.59
2022-10-02T11:11:37.299Z,98693.94
2022-10-02T11:14:05.618Z,98689.22
2022-10-02T11:16:50.777Z,98693.47
2022-10-02T11:19:27.677Z,98699.34
2022-10-02T11:22:13.175Z,98694.91
2022-10-02T11:24:50.408Z,98695.91
2022-10-02T11:27:20.021Z,98707.31
2022-10-02T11:29:51.127Z,98699.47
2022-10-02T11:32:45.279Z,98710.38
2022-10-02T11:35:12.095Z,98715.91
2022-10-02T11:37:50.707Z,98707.47
2022-10-02T11:40:20.627Z,98717.88
2022-10-02T11:42:47.710Z,98710.47
2022-10-02T11:45:14.191Z,98712.03
2022-10-02T11:47:56.650Z,98722.66
2022-10-02T11:50:29.519Z,98722.28
2022-10-02T11:53:16.127Z,98728.59
2022-10-02T11:55:43.782Z,98717.81
2022-10-02T11:58:16.507Z,98714.47
2022-10-02T12:01:05.680Z,98717.09
2022-10-02T12:04:10.995Z,98721.06
2022-10-02T12:06:50.046Z,98730.06
2022-10-02T12:09:22.415Z,98707.13
2022-10-02T12:12:07.604Z,98701.16
2022-10-02T12:15:03.907Z,98710.72
2022-10-02T12:17:33.327Z,98722.66
2022-10-02T12:20:31.303Z,98717.69
2022-10-02T12:23:23.131Z,98712.03
2022-10-02T12:26:29.611Z,98704.00
2022-10-02T12:29:14.642Z,98708.75
2022-10-02T12:31:51.483Z,98709.72
2022-10-02T12:34:31.508Z,98716.03
2022-10-02T12:37:19.493Z,98709.53
2022-10-02T12:39:45.978Z,98704.19
2022-10-02T12:42:13.823Z,98712.13
2022-10-02T12:44:46.213Z,98716.44
2022-10-02T12:47:19.389Z,98714.31
2022-10-02T12:49:46.969Z,98703.84
2022-10-02T12:52:13.941Z,98706.41
2022-10-02T12:54:55.769Z,98695.41
2022-10-02T12:57:44.584Z,98712.41
2022-10-02T13:00:22.479Z,98715.78
2022-10-02T13:03:00.740Z,98707.75
2022-10-02T13:05:38.477Z,98720.66
2022-10-02T13:08:16.146Z,98722.53
2022-10-02T13:10:57.364Z,98703.81
2022-10-02T13:13:31.808Z,98695.88
2022-10-02T13:16:20.440Z,98700.41
2022-10-02T13:19:02.409Z,98701.38
2022-10-02T13:21:35.805Z,98702.41
2022-10-02T13:24:21.537Z,98722.84
2022-10-02T13:27:18.544Z,98712.87
2022-10-02T13:29:45.395Z,98710.09
2022-10-02T13:32:31.617Z,98708.47
2022-10-02T13:34:58.391Z,98706.28
2022-10-02T13:37:32.904Z,98712.91
2022-10-02T13:40:02.923Z,98711.28
2022-10-02T13:42:29.445Z,98723.50
2022-10-02T13:45:18.437Z,98710.59
2022-10-02T13:47:51.169Z,98710.72
2022-10-02T13:50:25.721Z,98732.22
2022-10-02T13:53:19.798Z,98721.69
2022-10-02T13:55:55.163Z,98721.69
2022-10-02T13:58:25.203Z,98716.78
2022-10-02T14:01:02.947Z,98730.38
2022-10-02T14:03:48.845Z,98722.81
2022-10-02T14:06:29.168Z,98736.88
2022-10-02T14:09:14.912Z,98733.63
2022-10-02T14:11:47.277Z,98744.56
2022-10-02T14:14:28.370Z,98750.03
2022-10-02T14:17:13.762Z,98760.47
2022-10-02T14:20:03.443Z,98766.25
2022-10-02T14:22:29.922Z,98751.25
2022-10-02T14:25:15.735Z,98753.88
2022-10-02T14:27:54.525Z,98766.75
2022-10-02T14:30:22.890Z,98765.00
2022-10-02T14:32:49.490Z,98764.50
2022-10-02T14:35:35.633Z,98759.47
2022-10-02T14:38:20.640Z,98762.59
2022-10-02T14:40:52.483Z,98762.69
2022-10-02T14:43:33.485Z,98762.50
2022-10-02T14:46:00.283Z,98771.41
2022-10-02T14:48:33.349Z,98781.59
2022-10-02T14:51:08.915Z,98780.84
2022-10-02T14:53:45.114Z,98785.00
2022-10-02T14:56:30.553Z,98781.13
2022-10-02T14:58:57.538Z,98793.75
2022-10-02T15:01:26.477Z,98780.69
2022-10-02T15:04:13.624Z,98800.81
2022-10-02T15:06:59.282Z,98792.81
2022-10-02T15:09:25.855Z,98804.00
2022-10-02T15:12:22.277Z,98814.88
2022-10-02T15:14:56.955Z,98832.34
2022-10-02T15:17:53.264Z,98834.63
2022-10-02T15:20:38.487Z,98825.22
2022-10-02T15:23:09.333Z,98834.47
2022-10-02T15:25:54.226Z,98844.91
2022-10-02T15:28:42.059Z,98845.34
2022-10-02T15:31:17.260Z,98856.81
2022-10-02T15:34:09.790Z,98866.66
2022-10-02T15:36:45.984Z,98860.16
2022-10-02T15:39:23.485Z,98872.03
2022-10-02T15:42:03.019Z,98873.28
2022-10-02T15:45:02.511Z,98879.66
2022-10-02T15:47:40.050Z,98897.69
2022-10-02T15:50:19.118Z,98890.72
2022-10-02T15:52:57.826Z,98896.03
2022-10-02T15:55:41.567Z,98894.03
2022-10-02T15:58:17.005Z,98902.00
2022-10-02T16:01:02.405Z,98912.88
2022-10-02T16:03:41.754Z,98908.41
2022-10-02T16:06:23.571Z,98900.84
2022-10-02T16:09:17.648Z,98911.91
2022-10-02T16:12:10.523Z,98905.75
2022-10-02T16:14:40.026Z,98915.81
2022-10-02T16:17:13.628Z,98894.75
2022-10-02T16:19:46.407Z,98897.63
2022-10-02T16:22:31.638Z,98904.59
2022-10-02T16:25:10.753Z,98900.50
2022-10-02T16:27:48.781Z,98914.44
2022-10-02T16:30:16.890Z,98902.16
2022-10-02T16:32:43.410Z,98906.28
2022-10-02T16:35:28.830Z,98917.13
2022-10-02T16:37:59.914Z,98907.09
2022-10-02T16:40:36.375Z,98915.75
2022-10-02T16:43:21.887Z,98903.44
2022-10-02T16:46:07.226Z,98908.19
2022-10-02T16:49:03.651Z,98912.44
2022-10-02T16:51:30.133Z,98900.19
2022-10-02T16:54:09.295Z,98912.88
2022-10-02T16:56:54.317Z,98909.41
2022-10-02T16:59:26.762Z,98913.94
2022-10-02T17:02:16.345Z,98921.28
2022-10-02T17:04:51.352Z,98916.19
2022-10-02T17:07:25.090Z,98937.09
2022-10-02T17:09:55.131Z,98926.44
2022-10-02T17:12:27.823Z,98935.88
2022-10-02T17:15:02.765Z,98953.50
2022-10-02T17:17:48.596Z,98947.97
2022-10-02T17:20:16.648Z,98944.72
2022-10-02T17:22:50.920Z,98950.66
2022-10-02T17:25:27.276Z,98945.56
2022-10-02T17:28:02.973Z,98944.97
2022-10-02T17:30:43.388Z,98948.63
2022-10-02T17:33:13.248Z,98941.87
2022-10-02T17:35:46.156Z,98983.84
2022-10-02T17:38:24.189Z,98949.47
2022-10-02T17:41:06.581Z,98947.63
2022-10-02T17:43:42.169Z,98945.38
2022-10-02T17:46:21.459Z,98942.94
2022-10-02T17:48:53.578Z,98951.13
2022-10-02T17:51:51.254Z,98944.16
2022-10-02T17:54:28.570Z,98948.69
2022-10-02T17:57:20.519Z,98949.09
2022-10-02T18:00:04.921Z,98947.66
2022-10-02T18:02:50.559Z,98949.34
2022-10-02T18:05:38.185Z,98948.72
2022-10-02T18:08:13.538Z,98941.34
2022-10-02T18:10:40.383Z,98949.94
2022-10-02T18:13:14.772Z,98951.38
2022-10-02T18:15:56.401Z,98943.22
2022-10-02T18:18:32.532Z,98947.50
2022-10-02T18:21:03.640Z,98948.75
2022-10-02T18:23:30.168Z,98959.38
2022-10-02T18:26:18.919Z,98954.47
2022-10-02T18:28:55.227Z,98951.63
2022-10-02T18:31:54.820Z,98952.25
2022-10-02T18:34:26.580Z,98957.16
2022-10-02T18:37:13.595Z,98945.50
2022-10-02T18:40:06.694Z,98951.03
2022-10-02T18:42:40.008Z,98954.09
2022-10-02T18:45:12.618Z,98957.16
2022-10-02T18:47:57.898Z,98937.12
2022-10-02T18:50:33.726Z,98949.19
2022-10-02T18:53:18.944Z,98951.44
2022-10-02T18:56:00.913Z,98952.69
2022-10-02T18:58:42.730Z,98942.47
2022-10-02T19:01:16.820Z,98941.84
2022-10-02T19:03:55.710Z,98945.50
2022-10-02T19:06:41.625Z,98942.66
2022-10-02T19:09:08.204Z,98943.88
2022-10-02T19:11:41.905Z,98951.22
2022-10-02T19:14:16.113Z,98944.72
2022-10-02T19:16:57.128Z,98942.66
2022-10-02T19:19:24.508Z,98952.66
2022-10-02T19:21:57.232Z,98948.59
2022-10-02T19:24:28.639Z,98945.09
2022-10-02T19:26:57.254Z,98949.00
2022-10-02T19:29:30.562Z,98949.19
2022-10-02T19:31:58.648Z,98933.66
2022-10-02T19:34:27.791Z,98931.19
2022-10-02T19:36:57.154Z,98927.13
2022-10-02T19:39:35.720Z,98931.59
2022-10-02T19:42:06.949Z,98926.28
2022-10-02T19:44:44.921Z,98918.53
2022-10-02T19:47:37.744Z,98915.28
2022-10-02T19:50:06.193Z,98905.88
2022-10-02T19:52:37.763Z,98906.91
2022-10-02T19:55:17.052Z,98908.53
2022-10-02T19:57:45.129Z,98904.84
2022-10-02T20:00:16.994Z,98906.28
2022-10-02T20:02:47.862Z,98900.16
2022-10-02T20:05:20.651Z,98903.84
2022-10-02T20:07:48.579Z,98901.38
2022-10-02T20:10:17.177Z,98902.59
2022-10-02T20:12:48.966Z,98890.97
2022-10-02T20:15:39.801Z,98897.31
2022-10-02T20:18:07.063Z,98898.94
2022-10-02T20:20:35.989Z,98893.63
2022-10-02T20:23:05.373Z,98897.31
2022-10-02T20:25:36.021Z,98895.25
2022-10-02T20:28:06.086Z,98896.87
2022-10-02T20:30:38.238Z,98900.56
2022-10-02T20:33:10.994Z,98898.53
2022-10-02T20:35:44.974Z,98894.84
2022-10-02T20:38:18.383Z,98896.87
2022-10-02T20:40:48.029Z,98904.84
2022-10-02T20:43:18.843Z,98894.25
2022-10-02T20:45:53.950Z,98897.69
2022-10-02T20:48:25.867Z,98907.31
2022-10-02T20:50:59.864Z,98909.16
2022-10-02T20:53:26.623Z,98911.19
2022-10-02T20:56:28.946Z,98892.19
2022-10-02T20:59:07.544Z,98918.94
2022-10-02T21:01:40.890Z,98905.06
2022-10-02T21:04:26.608Z,98908.09
2022-10-02T21:06:53.257Z,98900.97
2022-10-02T21:09:38.990Z,98894.81
2022-10-02T21:12:28.632Z,98898.53
2022-10-02T21:15:01.286Z,98895.87
2022-10-02T21:17:49.231Z,98900.34
2022-10-02T21:20:27.823Z,98898.53
2022-10-02T21:23:11.489Z,98903.63
2022-10-02T21:26:01.838Z,98903.41
2022-10-02T21:28:48.994Z,98898.53
2022-10-02T21:31:29.949Z,98912.59
2022-10-02T21:34:07.657Z,98910.16
2022-10-02T21:36:45.619Z,98893.22
2022-10-02T21:39:15.435Z,98889.31
2022-10-02T21:41:44.189Z,98891.97
2022-10-02T21:44:10.863Z,98885.44
2022-10-02T21:46:41.289Z,98889.72
2022-10-02T21:49:25.141Z,98884.62
2022-10-02T21:52:00.958Z,98886.66
2022-10-02T21:54:46.645Z,98883.38
2022-10-02T21:57:16.101Z,98876.88
2022-10-02T22:00:03.648Z,98875.22
2022-10-02T22:02:53.331Z,98873.19
2022-10-02T22:05:26.437Z,98873.81
2022-10-02T22:08:05.617Z,98874.81
2022-10-02T22:10:48.201Z,98872.59
2022-10-02T22:13:27.437Z,98871.75
2022-10-02T22:16:14.894Z,98869.72
2022-10-02T22:18:47.463Z,98864.41
2022-10-02T22:21:14.228Z,98867.88
2022-10-02T22:23:54.627Z,98864.00
2022-10-02T22:26:31.148Z,98864.00
2022-10-02T22:29:21.019Z,98861.97
2022-10-02T22:32:36.193Z,98872.56
2022-10-02T22:35:19.732Z,98868.28
2022-10-02T22:37:49.432Z,98860.16
2022-10-02T22:40:23.319Z,98867.91
2022-10-02T22:42:54.615Z,98860.94
2022-10-02T22:45:21.138Z,98862.59
2022-10-02T22:48:01.073Z,98864.81
2022-10-02T22:50:34.332Z,98855.84
2022-10-02T22:53:21.084Z,98848.69
2022-10-02T22:55:55.347Z,98865.25
2022-10-02T22:58:30.307Z,98859.09
2022-10-02T23:00:57.299Z,98852.78
2022-10-02T23:03:29.873Z,98851.97
2022-10-02T23:06:02.243Z,98852.78
2022-10-02T23:08:31.548Z,98848.91
2022-10-02T23:11:04.691Z,98847.88
2022-10-02T23:13:35.421Z,98849.50
2022-10-02T23:16:05.121Z,98848.50
2022-10-02T23:18:34.655Z,98846.66
2022-10-02T23:21:13.344Z,98846.66
2022-10-02T23:23:50.845Z,98848.28
2022-10-02T23:26:26.662Z,98841.75
2022-10-02T23:29:07.118Z,98842.78
2022-10-02T23:31:37.652Z,98841.75
2022-10-02T23:34:17.471Z,98840.13
2022-10-02T23:36:47.463Z,98833.78
2022-10-02T23:39:14.286Z,98831.97
2022-10-02T23:41:49.311Z,98835.63
2022-10-02T23:44:19.265Z,98839.91
2022-10-02T23:46:48.951Z,98831.12
2022-10-02T23:49:21.733Z,98818.47
2022-10-02T23:52:06.740Z,98825.41
2022-10-02T23:54:48.942Z,98824.97
2022-10-02T23:57:34.323Z,98829.50
